createdAt,value
2018-07-31T00:01:20.192Z,26.63
2018-07-31T00:03:49.274Z,26.58
2018-07-31T00:06:18.384Z,26.58
2018-07-31T00:08:48.255Z,26.45
2018-07-31T00:11:17.572Z,26.44
2018-07-31T00:13:46.647Z,26.49
2018-07-31T00:16:15.779Z,26.44
2018-07-31T00:18:44.927Z,26.34
2018-07-31T00:21:14.048Z,26.33
2018-07-31T00:23:43.164Z,26.24
2018-07-31T00:26:12.253Z,26.23
2018-07-31T00:28:41.425Z,26.24
2018-07-31T00:31:10.520Z,26.22
2018-07-31T00:33:39.603Z,26.12
2018-07-31T00:36:08.763Z,25.95
2018-07-31T00:38:37.857Z,25.79
2018-07-31T00:41:07.008Z,25.78
2018-07-31T00:43:36.143Z,25.83
2018-07-31T00:46:05.223Z,25.87
2018-07-31T00:48:34.325Z,25.84
2018-07-31T00:51:03.410Z,25.73
2018-07-31T00:53:32.499Z,25.61
2018-07-31T00:56:01.600Z,25.61
2018-07-31T00:58:30.712Z,25.47
2018-07-31T01:00:59.788Z,25.52
2018-07-31T01:03:28.880Z,25.59
2018-07-31T01:05:57.957Z,25.60
2018-07-31T01:08:27.084Z,25.44
2018-07-31T01:10:56.202Z,25.29
2018-07-31T01:13:25.286Z,25.24
2018-07-31T01:15:54.356Z,25.32
2018-07-31T01:18:23.432Z,25.34
2018-07-31T01:20:52.732Z,25.31
2018-07-31T01:23:21.808Z,25.19
2018-07-31T01:25:51.024Z,25.07
2018-07-31T01:28:20.084Z,25.12
2018-07-31T01:30:49.203Z,25.20
2018-07-31T01:33:18.319Z,25.24
2018-07-31T01:35:47.412Z,25.22
2018-07-31T01:38:16.484Z,25.14
2018-07-31T01:40:45.577Z,25.07
2018-07-31T01:43:14.669Z,24.99
2018-07-31T01:45:43.770Z,24.93
2018-07-31T01:48:12.845Z,24.90
2018-07-31T01:50:41.961Z,24.85
2018-07-31T01:53:11.080Z,24.76
2018-07-31T01:55:40.187Z,24.73
2018-07-31T01:58:09.284Z,24.64
2018-07-31T02:00:38.407Z,24.68
2018-07-31T02:03:07.499Z,24.72
2018-07-31T02:05:36.592Z,24.70
2018-07-31T02:08:05.928Z,24.69
2018-07-31T02:10:35.029Z,24.64
2018-07-31T02:13:04.131Z,24.61
2018-07-31T02:15:33.228Z,24.60
2018-07-31T02:18:02.312Z,24.58
2018-07-31T02:20:31.412Z,24.59
2018-07-31T02:23:00.520Z,24.60
2018-07-31T02:25:29.652Z,24.55
2018-07-31T02:27:58.787Z,24.52
2018-07-31T02:30:27.796Z,24.56
2018-07-31T02:32:56.894Z,24.61
2018-07-31T02:35:25.991Z,24.52
2018-07-31T02:37:55.089Z,24.32
2018-07-31T02:40:24.204Z,24.36
2018-07-31T02:42:53.305Z,24.36
2018-07-31T02:45:22.376Z,24.34
2018-07-31T02:47:51.492Z,24.34
2018-07-31T02:50:20.564Z,24.35
2018-07-31T02:52:49.693Z,24.33
2018-07-31T02:55:18.756Z,24.33
2018-07-31T02:57:47.844Z,24.36
2018-07-31T03:00:16.999Z,24.34
2018-07-31T03:02:46.083Z,24.26
2018-07-31T03:05:15.196Z,24.20
2018-07-31T03:07:44.313Z,24.10
2018-07-31T03:10:13.396Z,24.04
2018-07-31T03:12:42.503Z,23.90
2018-07-31T03:15:12.036Z,23.77
2018-07-31T03:17:41.129Z,23.70
2018-07-31T03:20:10.224Z,23.66
2018-07-31T03:22:39.324Z,23.59
2018-07-31T03:25:08.919Z,23.58
2018-07-31T03:27:38.021Z,23.56
2018-07-31T03:30:07.132Z,23.52
2018-07-31T03:32:36.265Z,23.58
2018-07-31T03:35:05.403Z,23.59
2018-07-31T03:37:34.497Z,23.61
2018-07-31T03:40:03.581Z,23.65
2018-07-31T03:42:32.655Z,23.74
2018-07-31T03:45:01.783Z,23.75
2018-07-31T03:47:30.851Z,23.76
2018-07-31T03:50:01.013Z,23.75
2018-07-31T03:52:30.069Z,23.73
2018-07-31T03:54:59.205Z,23.71
2018-07-31T03:57:28.305Z,23.61
2018-07-31T03:59:57.418Z,23.61
2018-07-31T04:02:26.517Z,23.49
2018-07-31T04:04:55.624Z,23.54
2018-07-31T04:07:24.748Z,23.60
2018-07-31T04:09:53.860Z,23.56
2018-07-31T04:12:22.946Z,23.56
2018-07-31T04:14:53.061Z,23.62
2018-07-31T04:17:22.194Z,23.62
2018-07-31T04:19:51.325Z,23.71
2018-07-31T04:22:20.440Z,23.58
2018-07-31T04:24:49.572Z,23.63
2018-07-31T04:27:18.678Z,23.62
2018-07-31T04:29:47.793Z,23.53
2018-07-31T04:32:16.900Z,23.48
2018-07-31T04:34:46.033Z,23.40
2018-07-31T04:37:15.114Z,23.39
2018-07-31T04:39:44.221Z,23.42
2018-07-31T04:42:13.317Z,23.45
2018-07-31T04:44:42.433Z,23.51
2018-07-31T04:47:11.526Z,23.59
2018-07-31T04:49:40.616Z,23.65
2018-07-31T04:52:09.717Z,23.67
2018-07-31T04:54:38.805Z,23.62
2018-07-31T04:57:07.928Z,23.66
2018-07-31T04:59:37.029Z,23.89
2018-07-31T05:02:06.148Z,23.97
2018-07-31T05:04:35.260Z,24.10
2018-07-31T05:07:04.402Z,24.22
2018-07-31T05:09:33.480Z,24.34
2018-07-31T05:12:02.602Z,24.40
2018-07-31T05:14:31.689Z,24.49
2018-07-31T05:17:00.840Z,24.54
2018-07-31T05:19:29.923Z,24.59
2018-07-31T05:21:59.032Z,24.66
2018-07-31T05:24:28.127Z,24.79
2018-07-31T05:26:57.243Z,24.84
2018-07-31T05:29:26.323Z,24.96
2018-07-31T05:31:55.455Z,25.09
2018-07-31T05:34:24.584Z,25.21
2018-07-31T05:36:53.686Z,25.35
2018-07-31T05:39:22.761Z,25.46
2018-07-31T05:41:51.881Z,25.56
2018-07-31T05:44:20.988Z,25.66
2018-07-31T05:46:50.093Z,25.77
2018-07-31T05:49:19.193Z,25.91
2018-07-31T05:51:48.336Z,25.91
2018-07-31T05:54:17.429Z,26.04
2018-07-31T05:56:46.532Z,26.20
2018-07-31T05:59:15.604Z,26.29
2018-07-31T06:01:44.732Z,26.49
2018-07-31T06:04:13.817Z,26.68
2018-07-31T06:06:42.893Z,26.91
2018-07-31T06:09:12.068Z,27.05
2018-07-31T06:11:41.168Z,27.13
2018-07-31T06:14:10.297Z,27.27
2018-07-31T06:16:40.200Z,27.44
2018-07-31T06:19:09.468Z,27.60
2018-07-31T06:21:38.704Z,27.86
2018-07-31T06:24:07.821Z,28.00
2018-07-31T06:26:36.908Z,27.97
2018-07-31T06:29:06.067Z,28.12
2018-07-31T06:31:35.172Z,28.45
2018-07-31T06:34:04.260Z,28.56
2018-07-31T06:36:33.364Z,28.77
2018-07-31T06:39:02.649Z,28.86
2018-07-31T06:41:31.744Z,28.84
2018-07-31T06:44:00.943Z,28.90
2018-07-31T06:46:30.080Z,29.01
2018-07-31T06:48:59.189Z,29.01
2018-07-31T06:51:28.293Z,29.06
2018-07-31T06:53:57.412Z,29.00
2018-07-31T06:56:26.553Z,28.93
2018-07-31T06:58:56.056Z,28.98
2018-07-31T07:01:25.200Z,29.02
2018-07-31T07:03:54.327Z,29.05
2018-07-31T07:06:24.449Z,29.14
2018-07-31T07:08:53.640Z,29.29
2018-07-31T07:11:22.740Z,29.27
2018-07-31T07:13:51.856Z,29.37
2018-07-31T07:16:20.987Z,29.43
2018-07-31T07:18:50.073Z,29.48
2018-07-31T07:21:19.180Z,29.59
2018-07-31T07:23:48.691Z,29.58
2018-07-31T07:26:17.844Z,29.59
2018-07-31T07:28:46.956Z,29.73
2018-07-31T07:31:16.097Z,29.80
2018-07-31T07:33:45.217Z,29.91
2018-07-31T07:36:14.302Z,30.11
2018-07-31T07:38:43.434Z,30.18
2018-07-31T07:41:12.859Z,30.28
2018-07-31T07:43:42.645Z,30.39
2018-07-31T07:46:11.761Z,30.49
2018-07-31T07:48:40.906Z,30.62
2018-07-31T07:51:10.021Z,30.71
2018-07-31T07:53:39.121Z,30.82
2018-07-31T07:56:08.257Z,30.98
2018-07-31T07:58:37.359Z,31.18
2018-07-31T08:01:06.613Z,31.40
2018-07-31T08:03:35.702Z,31.61
2018-07-31T08:06:04.792Z,31.75
2018-07-31T08:08:34.689Z,31.59
2018-07-31T08:11:03.935Z,31.73
2018-07-31T08:13:33.037Z,31.84
2018-07-31T08:16:02.113Z,31.78
2018-07-31T08:18:31.232Z,31.68
2018-07-31T08:21:00.520Z,31.58
2018-07-31T08:23:29.625Z,31.63
2018-07-31T08:25:58.717Z,31.66
2018-07-31T08:28:27.816Z,31.68
2018-07-31T08:30:56.920Z,31.92
2018-07-31T08:33:26.102Z,32.05
2018-07-31T08:35:55.519Z,31.88
2018-07-31T08:38:24.630Z,31.62
2018-07-31T08:40:53.839Z,31.51
2018-07-31T08:43:22.953Z,31.40
2018-07-31T08:45:52.508Z,31.24
2018-07-31T08:48:21.613Z,31.28
2018-07-31T08:50:50.756Z,31.14
2018-07-31T08:53:19.868Z,31.06
2018-07-31T08:55:48.986Z,30.88
2018-07-31T08:58:18.059Z,30.92
2018-07-31T09:00:47.168Z,30.99
2018-07-31T09:03:16.258Z,31.07
2018-07-31T09:05:45.412Z,31.04
2018-07-31T09:08:14.570Z,30.99
2018-07-31T09:10:43.625Z,30.95
2018-07-31T09:13:12.709Z,31.04
2018-07-31T09:15:41.813Z,31.11
2018-07-31T09:18:10.909Z,31.25
2018-07-31T09:20:40.029Z,31.41
2018-07-31T09:23:09.120Z,31.68
2018-07-31T09:25:43.579Z,31.77
2018-07-31T09:28:12.948Z,32.00
2018-07-31T09:30:47.508Z,32.10
2018-07-31T09:33:16.534Z,32.11
2018-07-31T09:35:45.890Z,32.14
2018-07-31T09:38:15.006Z,32.40
2018-07-31T09:40:44.117Z,32.64
2018-07-31T09:43:13.216Z,32.80
2018-07-31T09:45:42.329Z,32.88
2018-07-31T09:48:11.420Z,32.94
2018-07-31T09:50:40.565Z,32.96
2018-07-31T09:53:09.612Z,33.10
2018-07-31T09:55:38.760Z,33.25
2018-07-31T09:58:07.863Z,33.40
2018-07-31T10:00:42.324Z,33.37
2018-07-31T10:03:11.405Z,33.38
2018-07-31T10:05:40.520Z,33.41
2018-07-31T10:08:09.776Z,33.57
2018-07-31T10:10:38.865Z,33.69
2018-07-31T10:13:08.503Z,33.66
2018-07-31T10:15:37.595Z,33.77
2018-07-31T10:18:06.789Z,33.90
2018-07-31T10:20:35.911Z,34.02
2018-07-31T10:23:05.025Z,34.20
2018-07-31T10:25:34.123Z,34.02
2018-07-31T10:28:03.260Z,34.00
2018-07-31T10:30:33.359Z,33.97
2018-07-31T10:33:02.908Z,34.08
2018-07-31T10:35:31.996Z,33.96
2018-07-31T10:38:01.171Z,33.86
2018-07-31T10:40:30.245Z,33.94
2018-07-31T10:42:59.413Z,33.82
2018-07-31T10:45:28.522Z,33.81
2018-07-31T10:47:57.620Z,33.83
2018-07-31T10:50:26.704Z,33.89
2018-07-31T10:52:55.817Z,34.13
2018-07-31T10:55:24.890Z,34.23
2018-07-31T10:57:54.005Z,34.12
2018-07-31T11:00:24.106Z,34.15
2018-07-31T11:02:53.301Z,34.25
2018-07-31T11:05:22.304Z,34.54
2018-07-31T11:07:53.561Z,34.60
2018-07-31T11:10:22.731Z,34.76
2018-07-31T11:12:51.788Z,34.96
2018-07-31T11:15:22.760Z,35.08
2018-07-31T11:17:52.335Z,35.14
2018-07-31T11:20:21.568Z,35.25
2018-07-31T11:22:50.732Z,35.11
2018-07-31T11:25:20.164Z,35.18
2018-07-31T11:27:49.349Z,34.92
2018-07-31T11:30:18.585Z,34.84
2018-07-31T11:32:51.334Z,34.91
2018-07-31T11:35:20.945Z,35.04
2018-07-31T11:37:50.909Z,35.03
2018-07-31T11:40:20.012Z,34.87
2018-07-31T11:42:49.236Z,34.98
2018-07-31T11:45:21.806Z,35.22
2018-07-31T11:47:51.582Z,35.27
2018-07-31T11:50:20.839Z,35.08
2018-07-31T11:52:49.927Z,35.07
2018-07-31T11:55:19.852Z,35.12
2018-07-31T11:57:50.610Z,35.13
2018-07-31T12:00:19.740Z,34.81
2018-07-31T12:02:48.865Z,34.72
2018-07-31T12:05:17.971Z,34.74
2018-07-31T12:07:47.089Z,34.95
2018-07-31T12:10:16.205Z,34.97
2018-07-31T12:12:45.308Z,35.14
2018-07-31T12:15:14.421Z,35.45
2018-07-31T12:17:43.533Z,35.37
2018-07-31T12:20:12.632Z,35.35
2018-07-31T12:22:41.732Z,35.48
2018-07-31T12:25:10.849Z,35.70
2018-07-31T12:27:39.973Z,35.72
2018-07-31T12:30:10.259Z,35.15
2018-07-31T12:32:40.319Z,35.17
2018-07-31T12:35:09.709Z,35.39
2018-07-31T12:37:38.847Z,35.74
2018-07-31T12:40:08.096Z,35.87
2018-07-31T12:42:37.245Z,35.91
2018-07-31T12:45:06.341Z,35.96
2018-07-31T12:47:35.511Z,35.93
2018-07-31T12:50:05.024Z,35.68
2018-07-31T12:52:35.156Z,35.59
2018-07-31T12:55:04.376Z,35.60
2018-07-31T12:57:33.497Z,35.82
2018-07-31T13:00:02.672Z,35.89
2018-07-31T13:02:31.752Z,35.97
2018-07-31T13:05:00.832Z,35.96
2018-07-31T13:07:30.011Z,35.92
2018-07-31T13:09:59.088Z,35.87
2018-07-31T13:12:28.185Z,35.65
2018-07-31T13:14:57.277Z,35.61
2018-07-31T13:17:26.401Z,35.52
2018-07-31T13:19:55.505Z,35.53
2018-07-31T13:22:24.656Z,35.74
2018-07-31T13:24:53.745Z,35.84
2018-07-31T13:27:22.834Z,36.04
2018-07-31T13:29:51.939Z,36.13
2018-07-31T13:32:21.064Z,36.09
2018-07-31T13:34:50.191Z,36.13
2018-07-31T13:37:19.303Z,36.14
2018-07-31T13:39:48.395Z,36.06
2018-07-31T13:42:17.492Z,36.26
2018-07-31T13:44:46.743Z,36.29
2018-07-31T13:47:15.849Z,36.13
2018-07-31T13:49:44.957Z,36.02
2018-07-31T13:52:14.061Z,35.89
2018-07-31T13:54:43.160Z,35.57
2018-07-31T13:57:12.268Z,35.66
2018-07-31T13:59:41.377Z,35.90
2018-07-31T14:02:10.465Z,35.68
2018-07-31T14:04:39.725Z,35.55
2018-07-31T14:07:08.913Z,35.45
2018-07-31T14:09:37.957Z,35.47
2018-07-31T14:12:07.122Z,35.35
2018-07-31T14:14:36.218Z,35.22
2018-07-31T14:17:05.305Z,35.33
2018-07-31T14:19:34.408Z,35.35
2018-07-31T14:22:03.488Z,35.38
2018-07-31T14:24:32.710Z,35.31
2018-07-31T14:27:01.829Z,35.25
2018-07-31T14:29:31.360Z,35.26
2018-07-31T14:32:00.472Z,35.12
2018-07-31T14:34:29.587Z,35.24
2018-07-31T14:36:58.710Z,35.37
2018-07-31T14:39:27.816Z,35.41
2018-07-31T14:41:56.945Z,35.51
2018-07-31T14:44:26.036Z,35.53
2018-07-31T14:46:55.730Z,35.51
2018-07-31T14:49:24.944Z,35.39
2018-07-31T14:51:54.880Z,35.44
2018-07-31T14:54:23.966Z,35.42
2018-07-31T14:56:53.099Z,35.47
2018-07-31T14:59:22.196Z,35.49
2018-07-31T15:01:51.312Z,35.47
2018-07-31T15:04:20.396Z,35.43
2018-07-31T15:06:49.521Z,35.36
2018-07-31T15:09:18.616Z,35.47
2018-07-31T15:11:47.857Z,35.36
2018-07-31T15:14:16.965Z,35.42
2018-07-31T15:16:46.072Z,35.54
2018-07-31T15:19:15.148Z,35.42
2018-07-31T15:21:44.250Z,35.60
2018-07-31T15:24:13.345Z,35.46
2018-07-31T15:26:42.461Z,35.46
2018-07-31T15:29:11.547Z,35.40
2018-07-31T15:31:40.665Z,35.44
2018-07-31T15:34:09.768Z,35.55
2018-07-31T15:36:38.850Z,35.58
2018-07-31T15:39:11.633Z,35.53
2018-07-31T15:41:41.062Z,35.51
2018-07-31T15:44:10.433Z,35.52
2018-07-31T15:46:39.512Z,35.46
2018-07-31T15:49:08.652Z,35.55
2018-07-31T15:51:37.746Z,35.64
2018-07-31T15:54:06.993Z,35.52
2018-07-31T15:56:36.064Z,35.32
2018-07-31T15:59:05.597Z,35.26
2018-07-31T16:01:34.746Z,35.34
2018-07-31T16:04:03.832Z,35.43
2018-07-31T16:06:32.943Z,35.44
2018-07-31T16:09:02.079Z,35.51
2018-07-31T16:11:31.161Z,35.48
2018-07-31T16:14:00.292Z,35.29
2018-07-31T16:16:29.361Z,35.36
2018-07-31T16:18:58.461Z,35.26
2018-07-31T16:21:27.557Z,35.20
2018-07-31T16:23:56.703Z,35.20
2018-07-31T16:26:25.820Z,35.19
2018-07-31T16:28:55.037Z,35.02
2018-07-31T16:31:24.920Z,34.86
2018-07-31T16:33:54.032Z,34.85
2018-07-31T16:36:23.144Z,34.78
2018-07-31T16:38:53.484Z,34.75
2018-07-31T16:41:24.200Z,34.67
2018-07-31T16:43:54.310Z,34.76
2018-07-31T16:46:24.368Z,34.73
2018-07-31T16:48:54.298Z,34.64
2018-07-31T16:51:24.277Z,34.61
2018-07-31T16:53:53.449Z,34.51
2018-07-31T16:56:22.548Z,34.45
2018-07-31T16:58:51.712Z,34.31
2018-07-31T17:01:20.808Z,34.22
2018-07-31T17:03:49.993Z,33.93
2018-07-31T17:06:19.152Z,33.71
2018-07-31T17:08:48.248Z,33.63
2018-07-31T17:11:17.363Z,33.36
2018-07-31T17:13:46.450Z,33.27
2018-07-31T17:16:15.650Z,33.18
2018-07-31T17:18:44.772Z,33.08
2018-07-31T17:21:13.889Z,33.08
2018-07-31T17:23:42.974Z,33.02
2018-07-31T17:26:12.420Z,32.97
2018-07-31T17:28:41.928Z,32.78
2018-07-31T17:31:11.040Z,32.65
2018-07-31T17:33:40.114Z,32.59
2018-07-31T17:36:09.240Z,32.49
2018-07-31T17:38:38.337Z,32.35
2018-07-31T17:41:07.445Z,32.03
2018-07-31T17:43:36.621Z,31.90
2018-07-31T17:46:05.749Z,31.80
2018-07-31T17:48:34.896Z,31.84
2018-07-31T17:51:03.945Z,31.84
2018-07-31T17:53:33.080Z,31.76
2018-07-31T17:56:02.193Z,31.75
2018-07-31T17:58:32.328Z,31.70
2018-07-31T18:01:01.744Z,31.32
2018-07-31T18:03:31.325Z,31.21
2018-07-31T18:06:00.524Z,31.18
2018-07-31T18:08:29.719Z,31.13
2018-07-31T18:10:58.807Z,31.12
2018-07-31T18:13:28.033Z,31.20
2018-07-31T18:15:57.237Z,31.07
2018-07-31T18:18:28.032Z,30.99
2018-07-31T18:20:57.508Z,30.97
2018-07-31T18:23:26.817Z,30.89
2018-07-31T18:25:56.772Z,30.83
2018-07-31T18:28:26.192Z,30.81
2018-07-31T18:30:55.377Z,30.79
2018-07-31T18:33:24.473Z,30.67
2018-07-31T18:35:53.564Z,30.55
2018-07-31T18:38:22.705Z,30.45
2018-07-31T18:40:51.825Z,30.40
2018-07-31T18:43:21.024Z,30.45
2018-07-31T18:45:50.124Z,30.41
2018-07-31T18:48:19.236Z,30.29
2018-07-31T18:50:48.409Z,30.21
2018-07-31T18:53:17.640Z,30.13
2018-07-31T18:55:46.782Z,29.93
2018-07-31T18:58:15.876Z,29.78
2018-07-31T19:00:44.992Z,29.77
2018-07-31T19:03:14.162Z,29.69
2018-07-31T19:05:43.258Z,29.58
2018-07-31T19:08:12.446Z,29.45
2018-07-31T19:10:41.644Z,29.42
2018-07-31T19:13:10.759Z,29.44
2018-07-31T19:15:39.876Z,29.37
2018-07-31T19:18:08.977Z,29.34
2018-07-31T19:20:38.082Z,29.23
2018-07-31T19:23:07.204Z,29.27
2018-07-31T19:25:36.305Z,29.22
2018-07-31T19:28:05.560Z,29.23
2018-07-31T19:30:34.607Z,29.25
2018-07-31T19:33:03.730Z,29.18
2018-07-31T19:35:32.849Z,29.17
2018-07-31T19:38:01.980Z,29.16
2018-07-31T19:40:31.159Z,28.98
2018-07-31T19:43:00.225Z,28.95
2018-07-31T19:45:29.352Z,28.77
2018-07-31T19:47:58.480Z,28.65
2018-07-31T19:50:27.600Z,28.53
2018-07-31T19:52:56.676Z,28.49
2018-07-31T19:55:25.777Z,28.36
2018-07-31T19:57:54.872Z,28.31
2018-07-31T20:00:23.957Z,28.30
2018-07-31T20:02:53.096Z,28.29
2018-07-31T20:05:22.197Z,28.26
2018-07-31T20:07:51.332Z,28.27
2018-07-31T20:10:20.447Z,28.27
2018-07-31T20:12:49.544Z,28.29
2018-07-31T20:15:18.665Z,28.23
2018-07-31T20:17:47.825Z,28.13
2018-07-31T20:20:16.912Z,28.13
2018-07-31T20:22:46.016Z,28.05
2018-07-31T20:25:15.113Z,28.00
2018-07-31T20:27:44.292Z,28.02
2018-07-31T20:30:13.402Z,27.98
2018-07-31T20:32:42.520Z,28.02
2018-07-31T20:35:11.624Z,27.93
2018-07-31T20:37:41.656Z,27.87
2018-07-31T20:40:14.611Z,27.90
2018-07-31T20:42:43.889Z,27.82
2018-07-31T20:45:12.991Z,27.86
2018-07-31T20:47:42.139Z,27.88
2018-07-31T20:50:11.228Z,27.70
2018-07-31T20:52:41.020Z,27.51
2018-07-31T20:55:10.199Z,27.41
2018-07-31T20:57:39.288Z,27.42
2018-07-31T21:00:08.444Z,27.41
2018-07-31T21:02:37.552Z,27.46
2018-07-31T21:05:06.721Z,27.41
2018-07-31T21:07:35.817Z,27.31
2018-07-31T21:10:05.637Z,27.35
2018-07-31T21:12:34.764Z,27.39
2018-07-31T21:15:03.920Z,27.21
2018-07-31T21:17:33.642Z,27.18
2018-07-31T21:20:02.741Z,27.12
2018-07-31T21:22:31.809Z,27.09
2018-07-31T21:25:00.918Z,26.94
2018-07-31T21:27:29.995Z,26.83
2018-07-31T21:29:59.107Z,26.81
2018-07-31T21:32:28.180Z,26.82
2018-07-31T21:34:57.265Z,26.80
2018-07-31T21:37:26.333Z,26.82
2018-07-31T21:39:55.433Z,26.75
2018-07-31T21:42:24.520Z,26.81
2018-07-31T21:44:53.612Z,26.83
2018-07-31T21:47:22.708Z,26.77
2018-07-31T21:49:51.871Z,26.64
2018-07-31T21:52:20.983Z,26.58
2018-07-31T21:54:50.109Z,26.61
2018-07-31T21:57:19.179Z,26.52
2018-07-31T21:59:48.312Z,26.52
2018-07-31T22:02:17.404Z,26.48
2018-07-31T22:04:46.488Z,26.44
2018-07-31T22:07:15.612Z,26.41
2018-07-31T22:09:45.531Z,26.36
2018-07-31T22:12:14.608Z,26.40
2018-07-31T22:14:43.740Z,26.31
2018-07-31T22:17:12.817Z,26.21
2018-07-31T22:19:41.940Z,26.21
2018-07-31T22:22:11.053Z,26.29
2018-07-31T22:24:40.226Z,26.25
2018-07-31T22:27:09.261Z,26.32
2018-07-31T22:29:38.376Z,26.18
2018-07-31T22:32:07.537Z,26.01
2018-07-31T22:34:36.612Z,25.96
2018-07-31T22:37:05.727Z,25.94
2018-07-31T22:39:34.809Z,25.71
2018-07-31T22:42:03.921Z,25.40
2018-07-31T22:44:33.000Z,25.21
2018-07-31T22:47:02.116Z,25.07
2018-07-31T22:49:31.184Z,25.07
2018-07-31T22:52:00.288Z,24.94
2018-07-31T22:54:29.363Z,24.90
2018-07-31T22:56:58.456Z,24.83
2018-07-31T22:59:27.540Z,24.84
2018-07-31T23:01:56.652Z,24.85
2018-07-31T23:04:25.749Z,24.72
2018-07-31T23:06:54.843Z,24.55
2018-07-31T23:09:23.975Z,24.55
2018-07-31T23:11:53.092Z,24.37
2018-07-31T23:14:22.181Z,24.38
2018-07-31T23:16:51.267Z,24.34
2018-07-31T23:19:20.388Z,24.20
2018-07-31T23:21:49.504Z,24.05
2018-07-31T23:24:18.569Z,23.98
2018-07-31T23:26:47.660Z,23.97
2018-07-31T23:29:16.735Z,24.04
2018-07-31T23:31:45.840Z,24.00
2018-07-31T23:34:14.912Z,23.88
2018-07-31T23:36:44.011Z,23.80
2018-07-31T23:39:13.089Z,23.81
2018-07-31T23:41:42.192Z,23.80
2018-07-31T23:44:11.259Z,23.87
2018-07-31T23:46:40.364Z,23.92
2018-07-31T23:49:09.439Z,23.95
2018-07-31T23:51:38.556Z,24.05
2018-07-31T23:54:07.628Z,24.11
2018-07-31T23:56:36.721Z,24.16
2018-07-31T23:59:05.818Z,24.02
